Airfield :
LOGIN :

Register | Disclaimer

   EN    FR    IT 

 










Legend :    VFR   Marginal VFR   IFR   Intensive IFR   Very Intensive IFR
Visi :
Ceiling :
>= 8 km
>= 3000ft
5 to 8 km
1000 to 3000 ft
1500m to 5 km
500 to 1000 ft
800 to 1500m
200 to 500 ft
< 800m
< 200 ft
Symbols :   Thunderstorms  Fog  Heavy snow  Heavy precipitations  Wind > 20 kt
SIGMETs :     Misc.  Thunderstorms  Icing  Turbulence  Mountain Waves  Volcanic Ashes






- Airport Elevation : 670 ft
- IATA code : MSQ


UMMS - Minsk - 2

CURRENT METAR :
  • 210000Z 12004G07MPS 9999 OVC016 01/M01 Q1033 R88/190055 NOSIG

EXPIRED METARs :
  • 202330Z 12004G07MPS 9999 OVC025 01/M01 Q1033 R88/190055 NOSIG
  • 202300Z 12004G07MPS 090V150 9999 OVC012 00/M01 Q1033 R88/190055 NOSIG
  • 202230Z 12004G07MPS 9999 OVC011 00/M01 Q1033 R88/190055 NOSIG
  • 202200Z 12006MPS 9999 OVC010 00/M01 Q1033 R88/190055 NOSIG
  • 202130Z 12005G08MPS 9000 -SNRA BKN008 OVC016 00/M00 Q1033 R88/190055 NOSIG

TAF TAF UMMS
Valid from the 21 at 00:00 until the 22 at 00:00 UTC


202303Z 2100/2124 11007G12MPS 5000 BR OVC004 TX03/2113Z TNM00/2101Z
TEMPO 2100/2106 13009G14MPS 1200 FZDZ OVC003
FM210600 13007G12MPS 6000 BKN005
TEMPO 2106/2124 15010G15MPS 1200 RASN BKN003



MET'MAP, your aeronautical weather chart ! - Copyright ORBIFLY December 2007 - Disclaimer

ORBIFLY MET'MAP TEAM :

Programming & Development : Alexandra Zaïnal
Concept & Development : Baudouin d'Aumeries
Co-Development & Prog : Marc-Olivier Méhu
Technical & hardware support : Manuel Goepfert

Contact : metmap@orbifly.com




SOURCES & CREDITS :

   NOAA